Time;durP1;ratioP1;P1;durP2;ratioP2;P2;SDS_P1;SDS_P2;PMS_P1;PMS_P2;Temp;Humidity;BMP_temperature;BMP_pressure;BME280_temperature;BME280_humidity;BME280_pressure;Samples;Min_cycle;Max_cycle;Signal;HPM_P1;HPM_P2
2022/01/13 00:02:12;;;;;;;216.73;26.73;;;5.50;99.90;;;;;;5036018;28;20076;-83
2022/01/13 00:04:51;;;;;;;;;;;;;;;;;;;;;
2022/01/13 00:07:20;;;;;;;270.23;28.98;;;5.40;99.90;;;;;;5031074;28;20061;-83
2022/01/13 00:09:56;;;;;;;227.38;25.80;;;5.40;99.90;;;;;;5013924;28;92817;-84
2022/01/13 00:12:42;;;;;;;193.85;24.80;;;5.40;99.90;;;;;;4992453;28;20507;-84
2022/01/13 00:15:23;;;;;;;183.70;23.80;;;5.40;99.90;;;;;;4989030;28;249464;-84
2022/01/13 00:18:01;;;;;;;199.75;24.70;;;5.30;99.90;;;;;;5014774;28;20483;-84
2022/01/13 00:23:57;;;;;;;;;;;;;;;;;;;;;
2022/01/13 00:26:25;;;;;;;110.03;20.95;;;5.20;99.90;;;;;;5000227;28;20041;-84
2022/01/13 00:29:00;;;;;;;129.52;21.52;;;5.30;99.90;;;;;;4992609;28;224647;-84
2022/01/13 00:31:47;;;;;;;130.15;20.67;;;5.20;99.90;;;;;;5049070;28;21219;-84
2022/01/13 00:34:15;;;;;;;102.80;19.83;;;5.20;99.90;;;;;;4907622;28;3042054;-84
2022/01/13 00:36:58;;;;;;;115.97;21.13;;;5.20;99.90;;;;;;5036405;28;20048;-84
2022/01/13 00:39:39;;;;;;;114.35;20.92;;;5.20;99.90;;;;;;4993238;28;53386;-84
2022/01/13 00:42:12;;;;;;;118.13;21.10;;;5.20;99.90;;;;;;4996379;28;20053;-84
2022/01/13 00:44:39;;;;;;;105.65;20.35;;;5.10;99.90;;;;;;4905289;28;3015787;-84
2022/01/13 00:47:14;;;;;;;121.80;21.70;;;5.10;99.90;;;;;;5015992;28;20490;-84
2022/01/13 00:49:47;;;;;;;105.78;22.00;;;5.10;99.90;;;;;;4706105;28;9031173;-84
2022/01/13 00:52:14;;;;;;;117.82;22.67;;;5.10;99.90;;;;;;5007877;28;20049;-84
2022/01/13 00:54:48;;;;;;;85.97;19.15;;;5.10;99.90;;;;;;4690488;28;9001432;-84
2022/01/13 00:57:35;;;;;;;87.03;20.33;;;5.00;99.90;;;;;;5014626;28;20163;-84
2022/01/13 01:00:11;;;;;;;90.80;21.52;;;5.10;99.90;;;;;;4995563;28;66713;-84
2022/01/13 01:02:48;;;;;;;82.90;19.98;;;5.00;99.90;;;;;;5008468;28;20410;-84
2022/01/13 01:05:20;;;;;;;97.10;21.65;;;5.10;99.90;;;;;;4974994;28;232724;-84
2022/01/13 01:08:09;;;;;;;92.43;20.25;;;5.10;99.90;;;;;;5005386;28;20076;-84
2022/01/13 01:10:55;;;;;;;86.78;18.90;;;5.00;99.90;;;;;;4992984;28;267332;-84
2022/01/13 01:13:38;;;;;;;90.53;19.00;;;5.00;99.90;;;;;;5000129;28;20072;-84
2022/01/13 01:16:12;;;;;;;102.53;18.73;;;5.00;99.90;;;;;;4981157;28;20045;-84
2022/01/13 01:28:33;;;;;;;124.78;19.33;;;5.10;99.90;;;;;;4927996;29;20131;-85
2022/01/13 01:31:06;;;;;;;143.88;20.40;;;5.00;99.90;;;;;;4881655;29;259585;-84
2022/01/13 01:33:48;;;;;;;139.00;21.55;;;5.00;99.90;;;;;;4892196;29;20044;-84
2022/01/13 01:36:18;;;;;;;142.13;21.90;;;5.00;99.90;;;;;;4850044;29;20053;-85
2022/01/13 01:38:52;;;;;;;130.82;22.20;;;5.10;99.90;;;;;;4872041;29;159973;-85
2022/01/13 01:41:35;;;;;;;110.13;20.63;;;5.10;99.90;;;;;;4872916;29;20091;-85
2022/01/13 01:44:13;;;;;;;90.20;18.50;;;5.10;99.90;;;;;;4844297;29;209313;-85
2022/01/13 01:46:51;;;;;;;113.90;21.00;;;5.10;99.90;;;;;;4876800;29;20055;-85
2022/01/13 01:49:38;;;;;;;128.95;22.98;;;5.00;99.90;;;;;;4871230;29;179430;-85
2022/01/13 01:52:08;;;;;;;119.65;21.30;;;5.00;99.90;;;;;;4870415;29;20079;-84
2022/01/13 01:54:38;;;;;;;118.28;21.88;;;5.00;99.90;;;;;;4881672;29;273005;-84
2022/01/13 01:57:15;;;;;;;104.47;22.48;;;5.00;99.90;;;;;;4904683;29;20502;-84
2022/01/13 02:00:12;;;;;;;107.70;22.02;;;5.10;99.90;;;;;;4945910;28;145227;-85
2022/01/13 02:02:54;;;;;;;110.55;21.63;;;5.10;99.90;;;;;;4947181;28;20062;-85
2022/01/13 02:05:23;;;;;;;111.70;23.27;;;5.10;99.90;;;;;;4945824;28;47207;-85
2022/01/13 02:07:55;;;;;;;117.00;23.20;;;5.10;99.90;;;;;;4998562;28;20153;-85
2022/01/13 02:10:34;;;;;;;105.10;22.05;;;5.10;99.90;;;;;;4899763;28;3023882;-85
2022/01/13 02:13:11;;;;;;;;;;;5.10;99.90;;;;;;5009677;28;20505;-85
2022/01/13 02:18:33;;;;;;;96.45;20.98;;;5.10;99.90;;;;;;5026435;28;20058;-85
2022/01/13 02:21:13;;;;;;;100.88;21.63;;;5.10;99.90;;;;;;4992416;28;166275;-85
2022/01/13 02:23:42;;;;;;;85.50;20.63;;;5.20;99.90;;;;;;4994361;28;142482;-85
2022/01/13 02:26:28;;;;;;;107.35;21.77;;;5.20;99.90;;;;;;5024851;28;20410;-85
2022/01/13 02:29:07;;;;;;;99.07;21.37;;;5.10;99.90;;;;;;4976110;28;255595;-84
2022/01/13 02:31:33;;;;;;;113.60;21.85;;;5.10;99.90;;;;;;5003507;28;20045;-85
2022/01/13 02:34:02;;;;;;;119.85;24.40;;;5.10;99.90;;;;;;4988704;28;216678;-84
2022/01/13 02:36:37;;;;;;;112.13;22.60;;;5.10;99.90;;;;;;5018933;28;20061;-85
2022/01/13 02:39:35;;;;;;;114.18;22.00;;;5.10;99.90;;;;;;4984434;28;242631;-85
2022/01/13 02:42:13;;;;;;;106.60;20.42;;;5.00;99.90;;;;;;5024962;28;20058;-84
2022/01/13 02:45:00;;;;;;;110.45;20.50;;;5.00;99.90;;;;;;5007125;28;188317;-85
2022/01/13 02:50:15;;;;;;;94.60;19.42;;;5.00;99.90;;;;;;4994258;28;307075;-85
2022/01/13 02:52:52;;;;;;;113.35;20.48;;;5.00;99.90;;;;;;5022782;28;20038;-84
2022/01/13 02:55:18;;;;;;;111.47;20.10;;;4.90;99.90;;;;;;4900631;28;3008080;-84
2022/01/13 02:58:02;;;;;;;118.40;20.83;;;5.00;99.90;;;;;;4990479;28;20149;-84
2022/01/13 03:00:39;;;;;;;128.90;21.15;;;5.00;99.90;;;;;;4984571;28;281265;-84
2022/01/13 03:03:16;;;;;;;134.35;21.35;;;5.00;99.90;;;;;;4990619;28;20041;-84
2022/01/13 03:05:47;;;;;;;137.50;21.58;;;4.90;99.90;;;;;;4993727;28;138250;-84
2022/01/13 03:08:16;;;;;;;146.80;21.73;;;4.90;99.90;;;;;;5022067;28;20558;-84
2022/01/13 03:10:55;;;;;;;163.27;21.83;;;4.90;99.90;;;;;;4989853;28;80813;-84
2022/01/13 03:13:23;;;;;;;135.70;22.80;;;4.90;99.90;;;;;;5021197;28;20049;-84
2022/01/13 03:16:00;;;;;;;139.00;22.65;;;4.90;99.90;;;;;;4992389;28;167361;-86
2022/01/13 03:18:32;;;;;;;136.38;21.83;;;4.90;99.90;;;;;;5012226;28;20049;-84
2022/01/13 03:21:12;;;;;;;101.50;20.05;;;5.00;99.90;;;;;;5013696;28;42274;-84
2022/01/13 03:23:51;;;;;;;152.46;21.46;;;5.00;99.90;;;;;;4915230;28;3010655;-84
2022/01/13 03:26:20;;;;;;;155.27;22.42;;;5.00;99.90;;;;;;5023179;28;20073;-83
2022/01/13 03:29:04;;;;;;;186.02;24.15;;;5.00;99.90;;;;;;4973403;28;232133;-84
2022/01/13 03:31:36;;;;;;;121.68;22.40;;;5.00;99.90;;;;;;5029204;28;20053;-83
2022/01/13 03:34:06;;;;;;;139.40;21.80;;;5.00;99.90;;;;;;4991694;28;206768;-84
2022/01/13 03:36:51;;;;;;;;;;;;;;;;;;;;;
2022/01/13 03:39:33;;;;;;;141.25;23.00;;;5.10;99.90;;;;;;4996508;28;185375;-84
2022/01/13 03:42:09;;;;;;;134.25;21.38;;;5.10;99.90;;;;;;5032088;28;20065;-83
2022/01/13 03:44:35;;;;;;;149.23;22.05;;;5.10;99.90;;;;;;5001911;28;225074;-83
2022/01/13 03:47:09;;;;;;;151.32;22.33;;;5.10;99.90;;;;;;5017983;28;20057;-83
2022/01/13 03:49:46;;;;;;;156.50;21.75;;;5.10;99.90;;;;;;4994174;28;201847;-83
2022/01/13 03:52:13;;;;;;;177.43;21.83;;;5.20;99.90;;;;;;5004986;28;20068;-83
2022/01/13 03:55:21;;;;;;;142.07;21.52;;;5.20;99.90;;;;;;5021168;28;73514;-84
2022/01/13 03:58:21;;;;;;;152.18;23.35;;;5.10;99.90;;;;;;5035281;28;20057;-84
2022/01/13 04:01:34;;;;;;;147.30;21.52;;;5.20;99.90;;;;;;4990925;28;208822;-84
2022/01/13 04:04:12;;;;;;;158.90;22.83;;;5.20;99.90;;;;;;4734719;28;7147442;-83
2022/01/13 04:06:45;;;;;;;148.25;20.63;;;5.20;99.90;;;;;;5014767;28;20057;-84
2022/01/13 04:09:50;;;;;;;160.15;20.90;;;5.20;99.90;;;;;;5001315;28;276859;-84
2022/01/13 04:12:22;;;;;;;151.35;21.50;;;5.10;99.90;;;;;;5006846;28;20033;-84
2022/01/13 04:14:58;;;;;;;210.98;24.70;;;5.10;99.90;;;;;;4984554;28;138698;-84
2022/01/13 04:17:30;;;;;;;163.23;23.80;;;5.20;99.90;;;;;;5008331;28;20064;-83
2022/01/13 04:20:11;;;;;;;188.55;22.77;;;5.10;99.90;;;;;;5008562;28;187675;-84
2022/01/13 04:22:40;;;;;;;163.57;20.90;;;5.10;99.90;;;;;;5020473;28;20045;-84
2022/01/13 04:25:09;;;;;;;176.40;22.20;;;5.10;99.90;;;;;;5019197;28;251025;-84
2022/01/13 04:28:00;;;;;;;194.85;22.95;;;5.10;99.90;;;;;;5019087;28;20426;-84
2022/01/13 04:30:45;;;;;;;182.90;21.08;;;5.10;99.90;;;;;;5007071;28;267444;-84
2022/01/13 04:33:21;;;;;;;164.48;21.98;;;5.10;99.90;;;;;;4990623;28;20991;-83
2022/01/13 04:35:50;;;;;;;211.57;24.02;;;5.10;99.90;;;;;;5014219;28;85436;-84
2022/01/13 04:38:31;;;;;;;214.55;24.15;;;5.10;99.90;;;;;;4987384;28;20064;-84
2022/01/13 04:41:00;;;;;;;183.27;20.75;;;5.00;99.90;;;;;;5003657;28;151936;-84
2022/01/13 04:43:32;;;;;;;176.63;20.98;;;5.00;99.90;;;;;;4991889;28;20056;-83
2022/01/13 04:46:11;;;;;;;187.35;20.20;;;5.10;99.90;;;;;;4983623;28;256992;-84
2022/01/13 04:48:37;;;;;;;159.40;19.17;;;5.00;99.90;;;;;;4995966;28;227822;-83
2022/01/13 04:51:08;;;;;;;184.90;20.75;;;5.00;99.90;;;;;;5017850;28;20054;-84
2022/01/13 04:53:48;;;;;;;166.18;22.10;;;5.00;99.90;;;;;;5034766;28;20060;-84
2022/01/13 04:56:27;;;;;;;168.15;21.40;;;5.10;99.90;;;;;;4965640;28;20647;-83
2022/01/13 04:58:59;;;;;;;209.23;24.57;;;5.00;99.90;;;;;;4661744;28;10004511;-84
2022/01/13 05:01:25;;;;;;;182.07;21.17;;;5.10;99.90;;;;;;5009271;28;20049;-84
2022/01/13 05:03:54;;;;;;;195.95;22.50;;;5.00;99.90;;;;;;4989217;28;239305;-84
2022/01/13 05:06:29;;;;;;;228.00;24.70;;;5.00;99.90;;;;;;5027684;28;20075;-84
2022/01/13 05:09:01;;;;;;;169.15;21.88;;;5.10;99.90;;;;;;4996596;28;250196;-83
2022/01/13 05:11:32;;;;;;;194.63;23.00;;;5.00;99.90;;;;;;5024715;28;20053;-83
2022/01/13 05:14:02;;;;;;;167.07;20.20;;;5.10;99.90;;;;;;4989744;28;244615;-83
2022/01/13 05:16:49;;;;;;;176.88;22.52;;;5.00;99.90;;;;;;5026784;28;20053;-83
2022/01/13 05:19:32;;;;;;;207.70;23.88;;;5.10;99.90;;;;;;4985216;28;80933;-83
2022/01/13 05:24:36;;;;;;;190.75;23.38;;;5.10;99.90;;;;;;4915005;28;2994313;-84
2022/01/13 05:27:29;;;;;;;200.50;24.33;;;5.10;99.90;;;;;;5011783;28;20060;-84
2022/01/13 05:30:22;;;;;;;181.85;22.13;;;5.10;99.90;;;;;;4996137;28;217535;-84
2022/01/13 05:33:01;;;;;;;;;;;;;;;;;;;;;
2022/01/13 05:35:34;;;;;;;192.02;22.88;;;5.10;99.90;;;;;;4989614;28;206270;-84
2022/01/13 05:38:12;;;;;;;;;;;5.10;99.90;;;;;;4993656;28;20064;-84
2022/01/13 05:40:39;;;;;;;178.10;23.55;;;5.10;99.90;;;;;;4952837;28;140791;-86
2022/01/13 05:43:08;;;;;;;183.48;23.85;;;5.00;99.90;;;;;;4921490;28;20055;-85
2022/01/13 05:45:49;;;;;;;183.05;22.17;;;5.10;99.90;;;;;;4940588;28;43459;-85
2022/01/13 05:48:18;;;;;;;208.43;23.88;;;5.10;99.90;;;;;;4925789;29;20043;-86
2022/01/13 05:54:15;;;;;;;159.00;20.40;;;5.10;99.90;;;;;;4930373;29;250930;-86
2022/01/13 06:00:40;;;;;;;211.05;24.67;;;5.10;99.90;;;;;;4746060;29;3027640;-86
2022/01/13 06:03:09;;;;;;;185.45;22.75;;;5.20;99.90;;;;;;4851141;29;20057;-85
2022/01/13 06:05:38;;;;;;;210.38;23.95;;;5.10;99.90;;;;;;4838789;29;242798;-85
2022/01/13 06:08:04;;;;;;;203.68;25.27;;;5.20;99.90;;;;;;4869824;29;20053;-80
2022/01/13 06:10:43;;;;;;;222.60;25.63;;;5.20;99.90;;;;;;4758665;29;3016624;-85
2022/01/13 06:13:26;;;;;;;231.60;25.67;;;5.20;99.90;;;;;;4909970;29;20112;-84
2022/01/13 06:16:03;;;;;;;198.27;23.40;;;5.20;99.90;;;;;;4888806;29;81358;-85
2022/01/13 06:18:30;;;;;;;217.68;24.38;;;5.20;99.90;;;;;;4890751;29;20058;-86
2022/01/13 06:20:59;;;;;;;193.80;22.42;;;5.20;99.90;;;;;;4883706;29;256522;-86
2022/01/13 06:23:25;;;;;;;242.07;26.48;;;5.20;99.90;;;;;;4883509;29;20201;-85
2022/01/13 06:26:03;;;;;;;235.07;24.75;;;5.30;99.90;;;;;;4803058;29;3000024;-87
2022/01/13 06:28:29;;;;;;;215.55;24.17;;;5.30;99.90;;;;;;4895102;29;20057;-86
2022/01/13 06:30:55;;;;;;;192.35;23.13;;;5.30;99.90;;;;;;4895863;28;197763;-86
2022/01/13 06:33:22;;;;;;;196.38;22.55;;;5.30;99.90;;;;;;4998144;28;20060;-84
2022/01/13 06:35:48;;;;;;;156.10;21.70;;;5.30;99.90;;;;;;4994512;28;270081;-84
2022/01/13 06:38:14;;;;;;;210.30;24.35;;;5.30;99.90;;;;;;5033708;28;20077;-85
2022/01/13 06:40:41;;;;;;;187.10;22.67;;;5.30;99.90;;;;;;4980751;28;225111;-85
2022/01/13 06:43:08;;;;;;;206.27;22.77;;;5.30;99.90;;;;;;5001338;28;20645;-85
2022/01/13 06:45:34;;;;;;;188.27;21.98;;;5.30;99.90;;;;;;4988644;28;31254;-83
2022/01/13 06:48:00;;;;;;;191.55;20.88;;;5.30;99.90;;;;;;5017443;28;20060;-84
2022/01/13 06:50:27;;;;;;;163.95;22.10;;;5.30;99.90;;;;;;5002658;28;153148;-85
2022/01/13 06:52:53;;;;;;;168.82;21.13;;;5.30;99.90;;;;;;5001669;28;20053;-83
2022/01/13 06:55:21;;;;;;;161.75;19.92;;;5.40;99.90;;;;;;4987753;28;148389;-85
2022/01/13 06:57:48;;;;;;;195.13;22.23;;;5.40;99.90;;;;;;5016116;28;20048;-85
2022/01/13 07:00:24;;;;;;;175.73;20.80;;;5.30;99.90;;;;;;5008245;28;187668;-85
2022/01/13 07:02:52;;;;;;;181.13;22.13;;;5.30;99.90;;;;;;5016525;28;20072;-84
2022/01/13 07:05:22;;;;;;;148.18;20.48;;;5.40;99.90;;;;;;4980812;28;103055;-84
2022/01/13 07:07:48;;;;;;;154.70;20.45;;;5.30;99.90;;;;;;5007469;28;20050;-85
2022/01/13 07:10:14;;;;;;;172.15;20.98;;;5.30;99.90;;;;;;4991686;28;101617;-84
2022/01/13 07:12:41;;;;;;;178.40;21.70;;;5.30;99.90;;;;;;5007794;28;20054;-84
2022/01/13 07:15:09;;;;;;;170.75;20.60;;;5.30;99.90;;;;;;5021391;28;53816;-84
2022/01/13 07:17:36;;;;;;;197.02;22.13;;;5.30;99.90;;;;;;5034310;28;20057;-84
2022/01/13 07:20:04;;;;;;;184.88;21.02;;;5.30;99.90;;;;;;5017998;28;269387;-84
2022/01/13 07:22:33;;;;;;;158.70;20.63;;;5.30;99.90;;;;;;4999254;28;20300;-84
2022/01/13 07:24:59;;;;;;;158.20;20.98;;;5.30;99.90;;;;;;4991707;28;162885;-84
2022/01/13 07:27:26;;;;;;;168.75;20.58;;;5.30;99.90;;;;;;5039782;28;20056;-84
2022/01/13 07:29:52;;;;;;;193.90;21.88;;;5.30;99.90;;;;;;4993237;28;109273;-84
2022/01/13 07:32:18;;;;;;;164.30;22.23;;;5.30;99.90;;;;;;5017653;28;20065;-84
2022/01/13 07:34:48;;;;;;;195.35;22.55;;;5.30;99.90;;;;;;4986989;28;199162;-84
2022/01/13 07:37:24;;;;;;;190.07;22.05;;;5.30;99.90;;;;;;5019315;28;20068;-84
2022/01/13 07:39:50;;;;;;;183.82;22.23;;;5.30;99.90;;;;;;5015408;28;292131;-84
2022/01/13 07:42:16;;;;;;;148.20;19.80;;;5.30;99.90;;;;;;5017205;28;20053;-83
2022/01/13 07:44:43;;;;;;;199.82;23.55;;;5.30;99.90;;;;;;4998752;28;31200;-83
2022/01/13 07:47:09;;;;;;;189.80;23.65;;;5.30;99.90;;;;;;5029865;28;20060;-80
2022/01/13 07:49:35;;;;;;;211.85;25.25;;;5.30;99.90;;;;;;5021865;28;236940;-83
2022/01/13 07:52:03;;;;;;;182.93;22.95;;;5.30;99.90;;;;;;5032485;28;20057;-83
2022/01/13 07:54:31;;;;;;;167.90;21.25;;;5.30;99.90;;;;;;5012212;28;91622;-83
2022/01/13 07:56:59;;;;;;;173.65;23.08;;;5.30;99.90;;;;;;5017383;28;20061;-84
2022/01/13 07:59:28;;;;;;;188.50;24.17;;;5.30;99.90;;;;;;4996203;28;218910;-83
2022/01/13 08:01:55;;;;;;;181.25;24.25;;;5.30;99.90;;;;;;5005227;28;20057;-83
2022/01/13 08:04:27;;;;;;;166.57;22.33;;;5.40;99.90;;;;;;4992357;28;253499;-84
2022/01/13 08:06:54;;;;;;;145.57;21.55;;;5.30;99.90;;;;;;5003989;28;20052;-86
2022/01/13 08:09:23;;;;;;;160.27;22.75;;;5.30;99.90;;;;;;5016007;28;267428;-85
2022/01/13 08:11:52;;;;;;;177.50;23.20;;;5.40;99.90;;;;;;5018434;28;20068;-84
2022/01/13 08:14:22;;;;;;;170.35;22.90;;;5.30;99.90;;;;;;4987457;28;111729;-85
2022/01/13 08:16:50;;;;;;;137.98;21.30;;;5.40;99.90;;;;;;5011673;28;20049;-85
2022/01/13 08:22:07;;;;;;;180.48;23.30;;;5.30;99.90;;;;;;5036474;28;20426;-84
2022/01/13 08:24:36;;;;;;;164.55;24.13;;;5.40;99.90;;;;;;4996482;28;203442;-84
2022/01/13 08:27:06;;;;;;;158.57;23.80;;;5.40;99.90;;;;;;5014305;28;20057;-84
2022/01/13 08:29:33;;;;;;;132.48;22.92;;;5.40;99.90;;;;;;4999690;28;77769;-83
2022/01/13 08:32:00;;;;;;;137.35;24.10;;;5.50;99.90;;;;;;5018143;28;20092;-84
2022/01/13 08:34:26;;;;;;;144.25;24.83;;;5.50;99.90;;;;;;5003506;28;106926;-83
2022/01/13 08:36:54;;;;;;;139.20;24.55;;;5.50;99.90;;;;;;5015835;28;20506;-85
2022/01/13 08:39:23;;;;;;;142.90;24.30;;;5.60;99.90;;;;;;5003275;28;44832;-84
2022/01/13 08:41:50;;;;;;;136.63;24.08;;;5.50;99.90;;;;;;5016659;28;20068;-82
2022/01/13 08:44:19;;;;;;;138.15;24.92;;;5.50;99.90;;;;;;4993231;28;151918;-84
2022/01/13 08:46:48;;;;;;;144.88;24.60;;;5.60;99.90;;;;;;5038498;28;20057;-85
2022/01/13 08:49:15;;;;;;;140.93;24.95;;;5.60;99.90;;;;;;5010432;28;211111;-83
2022/01/13 08:51:41;;;;;;;137.32;24.00;;;5.60;99.90;;;;;;5020943;28;20049;-84
2022/01/13 08:54:11;;;;;;;137.85;25.10;;;5.60;99.90;;;;;;4989601;28;263432;-83
2022/01/13 08:56:38;;;;;;;143.60;27.25;;;5.70;99.90;;;;;;5013517;28;20054;-83
2022/01/13 08:59:11;;;;;;;123.57;26.85;;;5.70;99.90;;;;;;4980785;28;26346;-84
2022/01/13 09:01:37;;;;;;;113.78;24.42;;;5.70;99.90;;;;;;5018103;28;20073;-84
2022/01/13 09:04:06;;;;;;;129.77;26.65;;;5.70;99.90;;;;;;4979808;28;239013;-84
2022/01/13 09:06:41;;;;;;;127.15;27.63;;;5.70;99.90;;;;;;5010836;28;20053;-84
2022/01/13 09:09:14;;;;;;;133.73;30.02;;;5.80;99.90;;;;;;5010974;28;181651;-84
2022/01/13 09:11:45;;;;;;;128.32;27.17;;;5.80;99.90;;;;;;5033917;28;20049;-83
2022/01/13 09:14:15;;;;;;;129.13;29.60;;;5.80;99.90;;;;;;4981803;28;234179;-84
2022/01/13 09:16:49;;;;;;;141.57;27.92;;;5.80;99.90;;;;;;5006613;28;20053;-85
2022/01/13 09:19:19;;;;;;;141.23;27.65;;;5.80;99.90;;;;;;4992558;28;194731;-84
2022/01/13 09:21:53;;;;;;;139.48;27.63;;;5.90;99.90;;;;;;5016828;28;20053;-85
2022/01/13 09:24:30;;;;;;;133.38;27.42;;;5.90;99.90;;;;;;4996190;28;180746;-84
2022/01/13 09:26:56;;;;;;;142.13;28.58;;;6.00;99.90;;;;;;5022910;28;20049;-84
2022/01/13 09:29:31;;;;;;;137.45;28.40;;;6.00;99.90;;;;;;4881395;28;2994957;-85
2022/01/13 09:32:04;;;;;;;131.07;29.73;;;6.00;99.90;;;;;;5007991;28;20053;-84
2022/01/13 09:34:43;;;;;;;141.55;29.33;;;6.00;99.90;;;;;;5006827;28;43983;-84
2022/01/13 09:37:11;;;;;;;144.20;30.05;;;6.10;99.90;;;;;;5025893;28;20052;-85
2022/01/13 09:39:40;;;;;;;151.30;31.48;;;6.10;99.90;;;;;;4993898;28;219932;-85
2022/01/13 09:42:09;;;;;;;130.10;28.25;;;6.10;99.90;;;;;;5003985;28;20041;-85
2022/01/13 09:44:39;;;;;;;150.40;29.70;;;6.00;99.90;;;;;;5004765;28;62259;-86
2022/01/13 09:47:05;;;;;;;171.05;31.55;;;6.10;99.90;;;;;;4994568;28;20487;-86
2022/01/13 09:49:32;;;;;;;153.55;29.13;;;6.10;99.90;;;;;;4993646;28;249054;-85
2022/01/13 09:51:59;;;;;;;169.82;28.95;;;6.00;99.90;;;;;;5011664;28;20057;-85
2022/01/13 09:54:26;;;;;;;177.52;30.25;;;6.00;99.90;;;;;;5001615;28;109883;-84
2022/01/13 09:56:53;;;;;;;164.70;29.13;;;6.10;99.90;;;;;;5036564;28;20076;-84
2022/01/13 09:59:19;;;;;;;164.38;28.05;;;6.10;99.90;;;;;;4980798;28;181150;-85
2022/01/13 10:01:45;;;;;;;177.48;30.70;;;6.10;99.90;;;;;;5028845;28;20060;-84
2022/01/13 10:04:11;;;;;;;169.50;28.92;;;6.10;99.90;;;;;;4977811;28;210294;-85
2022/01/13 10:06:47;;;;;;;171.40;29.23;;;6.20;99.90;;;;;;5014914;28;20499;-86
2022/01/13 10:09:15;;;;;;;173.43;28.80;;;6.10;99.90;;;;;;4884317;28;3023078;-84
2022/01/13 10:11:48;;;;;;;163.65;27.92;;;6.20;99.90;;;;;;5018784;28;20045;-84
2022/01/13 10:16:57;;;;;;;174.75;28.45;;;6.10;99.90;;;;;;5028117;28;20049;-84
2022/01/13 10:19:35;;;;;;;168.57;28.65;;;6.10;99.90;;;;;;5002523;28;20521;-85
2022/01/13 10:22:07;;;;;;;162.73;27.77;;;6.10;99.90;;;;;;5050276;28;20068;-85
2022/01/13 10:24:47;;;;;;;146.45;27.85;;;6.20;99.90;;;;;;5025033;28;85997;-84
2022/01/13 10:27:30;;;;;;;149.05;29.13;;;6.20;99.90;;;;;;5023665;28;20064;-84
2022/01/13 10:30:03;;;;;;;168.73;27.83;;;6.20;99.90;;;;;;4993696;28;23331;-85
2022/01/13 10:32:36;;;;;;;160.93;28.23;;;6.20;99.90;;;;;;5007269;28;20657;-85
2022/01/13 10:35:09;;;;;;;141.32;26.75;;;6.20;99.90;;;;;;4993014;28;219214;-84
2022/01/13 10:37:39;;;;;;;175.25;29.65;;;6.20;99.90;;;;;;5012549;28;20053;-83
2022/01/13 10:40:07;;;;;;;191.20;30.85;;;6.20;99.90;;;;;;5012986;28;128602;-83
2022/01/13 10:45:10;;;;;;;170.25;29.10;;;6.30;99.90;;;;;;5022556;28;261351;-83
2022/01/13 10:47:40;;;;;;;161.43;28.55;;;6.40;99.90;;;;;;5005437;28;20041;-82
2022/01/13 10:50:12;;;;;;;147.98;29.92;;;6.30;99.90;;;;;;5020896;28;261985;-82
2022/01/13 10:52:39;;;;;;;153.10;28.50;;;6.30;99.90;;;;;;5024671;28;20061;-82
2022/01/13 10:55:10;;;;;;;147.93;29.05;;;6.40;99.90;;;;;;5001687;28;116431;-84
2022/01/13 10:57:38;;;;;;;143.38;28.70;;;6.30;99.90;;;;;;5017480;28;20064;-83
2022/01/13 11:00:17;;;;;;;132.05;27.42;;;6.40;99.90;;;;;;5002426;28;260842;-81
2022/01/13 11:03:07;;;;;;;143.18;29.30;;;6.40;99.90;;;;;;5022015;28;20293;-82
2022/01/13 11:05:40;;;;;;;136.32;26.90;;;6.40;99.90;;;;;;5002110;28;253167;-82
2022/01/13 11:08:08;;;;;;;125.30;26.63;;;6.40;99.90;;;;;;5007906;28;20061;-82
2022/01/13 11:10:37;;;;;;;141.48;28.92;;;6.40;99.90;;;;;;5024292;28;247122;-82
2022/01/13 11:13:06;;;;;;;133.65;29.35;;;6.40;99.90;;;;;;5006188;28;21869;-82
2022/01/13 11:15:34;;;;;;;125.18;27.95;;;6.40;99.90;;;;;;5027330;28;244928;-82
2022/01/13 11:18:00;;;;;;;127.32;28.00;;;6.50;99.90;;;;;;5010547;28;20038;-83
2022/01/13 11:20:28;;;;;;;128.30;27.92;;;6.50;99.90;;;;;;5007536;28;266831;-83
2022/01/13 11:22:57;;;;;;;125.30;28.17;;;6.50;99.90;;;;;;5007982;28;20057;-83
2022/01/13 11:25:26;;;;;;;105.15;28.13;;;6.50;99.90;;;;;;5005700;28;130652;-83
2022/01/13 11:27:55;;;;;;;115.93;27.98;;;6.50;99.90;;;;;;5007081;28;20445;-84
2022/01/13 11:30:27;;;;;;;116.10;27.73;;;6.60;99.90;;;;;;5018582;28;274569;-83
2022/01/13 11:32:53;;;;;;;109.72;27.83;;;6.60;99.90;;;;;;5010467;28;20045;-82
2022/01/13 11:35:26;;;;;;;106.68;26.90;;;6.60;99.90;;;;;;5005787;28;209230;-82
2022/01/13 11:37:53;;;;;;;90.97;25.30;;;6.60;99.90;;;;;;5026424;28;20104;-82
2022/01/13 11:40:28;;;;;;;104.30;27.95;;;6.60;99.90;;;;;;5003874;28;223858;-82
2022/01/13 11:42:55;;;;;;;94.07;27.08;;;6.60;99.90;;;;;;5008146;28;20084;-83
2022/01/13 11:45:22;;;;;;;91.57;24.88;;;6.70;99.90;;;;;;4996082;28;237507;-83
2022/01/13 11:48:16;;;;;;;88.03;27.13;;;6.70;99.90;;;;;;5029421;28;20049;-83
2022/01/13 11:50:52;;;;;;;77.90;25.50;;;6.70;99.90;;;;;;5005870;28;169651;-82
2022/01/13 11:53:22;;;;;;;83.70;24.48;;;6.70;99.90;;;;;;5017426;28;20053;-85
2022/01/13 11:55:58;;;;;;;84.22;25.65;;;6.70;99.90;;;;;;5024306;28;260481;-83
2022/01/13 11:58:32;;;;;;;85.40;25.25;;;6.70;99.90;;;;;;5005309;28;20507;-83
2022/01/13 12:01:29;;;;;;;89.95;25.83;;;6.60;99.90;;;;;;5005816;28;174310;-83
2022/01/13 12:03:58;;;;;;;97.97;26.75;;;6.60;99.90;;;;;;4999505;28;258217;-83
2022/01/13 12:06:37;;;;;;;98.53;27.83;;;6.60;99.90;;;;;;5049227;28;20057;-83
2022/01/13 12:09:09;;;;;;;95.85;27.40;;;6.70;99.90;;;;;;5004273;28;65775;-83
2022/01/13 12:11:54;;;;;;;106.85;27.77;;;6.60;99.90;;;;;;5051848;28;20071;-83
2022/01/13 12:14:27;;;;;;;95.95;25.42;;;6.70;99.90;;;;;;5046838;28;20037;-84
2022/01/13 12:17:06;;;;;;;102.03;26.98;;;6.70;99.90;;;;;;5024833;28;20060;-83
2022/01/13 12:19:40;;;;;;;114.00;28.50;;;6.70;99.90;;;;;;5017830;28;24879;-82
2022/01/13 12:22:14;;;;;;;104.68;28.88;;;6.70;99.90;;;;;;5025824;28;20063;-84
2022/01/13 12:25:00;;;;;;;110.35;29.27;;;6.70;99.90;;;;;;5008391;28;126246;-83
2022/01/13 12:27:50;;;;;;;104.57;28.55;;;6.70;99.90;;;;;;5016414;28;20057;-84
2022/01/13 12:30:28;;;;;;;106.47;27.77;;;6.70;99.90;;;;;;4961260;28;30284;-83
2022/01/13 12:33:03;;;;;;;102.60;29.30;;;6.70;99.90;;;;;;4978749;28;20046;-83
2022/01/13 12:35:39;;;;;;;112.88;30.10;;;6.80;99.90;;;;;;4975099;28;184969;-82
2022/01/13 12:38:09;;;;;;;100.90;29.73;;;6.80;99.90;;;;;;4976824;28;20047;-84
2022/01/13 12:40:45;;;;;;;100.85;30.33;;;6.70;99.90;;;;;;4962295;28;54794;-85
2022/01/13 12:46:07;;;;;;;105.43;29.98;;;6.80;99.90;;;;;;4965589;28;20050;-83
2022/01/13 12:48:35;;;;;;;101.68;31.20;;;6.80;99.90;;;;;;4974527;28;20061;-84
2022/01/13 12:51:01;;;;;;;104.53;31.65;;;6.80;99.90;;;;;;4956633;28;256055;-84
2022/01/13 12:53:30;;;;;;;106.25;32.03;;;6.80;99.90;;;;;;4957217;28;20095;-84
2022/01/13 12:56:15;;;;;;;103.63;30.52;;;6.80;99.90;;;;;;4978177;28;78678;-84
2022/01/13 12:58:47;;;;;;;102.33;32.70;;;6.80;99.90;;;;;;4973633;28;191282;-83
2022/01/13 13:01:20;;;;;;;77.95;30.33;;;6.90;99.90;;;;;;5002174;28;20069;-83
2022/01/13 13:04:10;;;;;;;79.97;28.97;;;6.90;99.90;;;;;;4912551;28;194809;-84
2022/01/13 13:06:40;;;;;;;71.97;29.25;;;6.90;99.90;;;;;;4977910;28;20471;-84
2022/01/13 13:09:34;;;;;;;71.35;27.35;;;6.90;99.90;;;;;;5008544;28;258036;-84
2022/01/13 13:12:03;;;;;;;66.90;27.45;;;7.00;99.90;;;;;;5007394;28;20065;-84
2022/01/13 13:17:40;;;;;;;69.95;28.83;;;7.10;99.90;;;;;;5013914;28;20522;-84
2022/01/13 13:20:27;;;;;;;75.60;28.35;;;7.10;99.90;;;;;;5008358;28;69919;-84
2022/01/13 13:22:58;;;;;;;67.47;26.70;;;7.10;99.90;;;;;;5006149;28;20061;-86
2022/01/13 13:25:28;;;;;;;69.53;28.92;;;7.10;99.90;;;;;;5013015;28;20056;-84
2022/01/13 13:27:54;;;;;;;56.08;26.88;;;7.20;99.90;;;;;;5012969;28;20056;-84
2022/01/13 13:30:21;;;;;;;63.10;27.50;;;7.20;99.90;;;;;;5015785;28;251060;-84
2022/01/13 13:32:51;;;;;;;60.25;27.35;;;7.20;99.90;;;;;;5015349;28;20060;-84
2022/01/13 13:35:18;;;;;;;52.63;27.27;;;7.20;99.90;;;;;;5008638;28;210875;-84
2022/01/13 13:37:46;;;;;;;57.95;26.40;;;7.30;99.90;;;;;;5032525;28;20878;-85
2022/01/13 13:40:24;;;;;;;55.45;26.08;;;7.30;99.90;;;;;;5018532;28;259828;-84
2022/01/13 13:43:06;;;;;;;53.47;27.33;;;7.30;99.90;;;;;;5010352;28;20049;-82